Terminal Aerodrome Forecast
Issued by NWS

Home | Current Version | Previous Version | Text Only | Print | Product List | Glossary On
Versions: 1 2 3 4 5 6 7 8 9 10 11
000
FTUS46 KLOX 252300
TAFVNY
TAF
KVNY 252332Z 2600/2624 16009KT P6SM BKN150
     FM260400 12005KT P6SM BKN150
     FM262000 15010KT P6SM BKN150=

USA.gov is the U.S. government's official web portal to all federal, state and local government web resources and services.